Apex, NC

9:33 AM EDT on August 29, 2015 (GMT -0400)
Amherst | | Change Station
CLOSE
Current Station
Personal Weather Station
Location: Apex, NC
Elevation: 417 ft
Nearby Weather Stations

Elev 417 ft 35.73 °N, 78.87 °W | Updated 5 seconds ago

Mostly Cloudy
Mostly Cloudy
79.3 °F
Feels Like 81 °F
N
0.0
Wind Variable Wind from SW
Gusts 0.0 mph

Today
High -- | Low -- °F
--% Chance of Precip.
Yesterday
High -- | Low -- °F
Precip. -- in
6:45 AM 7:47 PM
Full, 100% visible
Pressure 30.23 in
Visibility 10.0 miles
Clouds Few 7500 ft
Mostly Cloudy 25000 ft
Heat Index 81 °F
Dew Point 65.7 °F
Humidity 63%
Rainfall 0.00 in
Snow Depth Not available.
UV 1 out of 12
Pollen 7.80 out of 12
Air Quality Not available.
Flu Activity Not available.
METAR KRDU 291251Z 00000KT 10SM FEW075 BKN250 22/18 A3024 RMK AO2 SLP235 T02220178
Pressure 30.23 in
Visibility 10.0 miles
Clouds Few 7500 ft
Mostly Cloudy 25000 ft
Heat Index 81 °F
Dew Point 65.7 °F
Humidity 63%
Rainfall 0.00 in
Snow Depth Not available.
UV 1 out of 12
Pollen 7.80 out of 12
Air Quality Not available.
Flu Activity Not available.
METAR KRDU 291251Z 00000KT 10SM FEW075 BKN250 22/18 A3024 RMK AO2 SLP235 T02220178

10-Day Weather Forecast

×

Almanac

Astronomy

Aug. 29, 2015 Rise Set
Actual Time
Civil Twilight
Nautical Twilight
Astronomical Twilight
Moon
Length of Visible Light
Length of Day
Tomorrow will be .
, % of the Moon is Illuminated

Today's Extremes

State Highs State Lows

Community

WunderPhotos

Upload Photos

1,850,686 photos uploaded!

WunderBlogs® & News

Nearby

Air Quality

  Air Quality AQ Index Pollutant
Not available.

Snow Depth

Station Depth Elevation

Earthquake Activity

City Distance Mag. Time & Date
Minimum magnitude displayed is 2.5.

Coastal Water Temperatures

Place Temperature

Stations

Nearby Weather Stations

Station Location Temp. Windchill Dew Point Humidity Wind Precip. Elev Updated Type